Dawson, North Dakota
Current Conditions -  °F | °C
As of 5:52 AM on Thursday 27 Nov 2014 (Local Time) from KBIS Reporting Station
Scattered Clouds Scattered Clouds  
Wind Chill: -23°   Ceiling: Unl
Heat Index: -8°   Visibility: 10mi
Dew Point: -12°   Wind: 7mph
Humidity: 83%   Direction: 90°E
Pressure: 30.38"   Gusts: NA
Location:  46.87°N, 99.75°W
Report Text: KBIS 271152Z 09006KT 10SM SCT018 M22/M24 A3038 RMK AO2 SLP340 70002 T12221244 11217 21244 58021
Loading
Personal Weather Stations






























Interactive Weather Map New forecast layout! Learn more

10-Day Weather Forecast

Advertisements
Track Severe Weather on mobile